Fremont, NE

7:39 AM CST on March 01, 2015 (GMT -0600)
Wahoo Municipal | Change Station
CLOSE
Current Station
Airport
Location: Wahoo,
Elevation: 1224 ft
Nearby Weather Stations

Elev 1224 ft 41.24 °N, 96.59 °W | Updated 24 minutes ago

Clear
Clear
16 °F
Feels Like 16 °F
N
0
Wind Variable Wind from North

Today
High -- | Low -- °F
--% Chance of Precip.
Yesterday
High -- | Low -- °F
Precip. -- in
7:00 AM 6:16 PM
Waxing Gibbous, 85% visible
Pressure 30.32 in
Visibility 10.0 miles
Clouds Overcast 12000 ft
Dew Point 10 °F
Humidity 80%
Rainfall 0.00 in
Snow Depth Not available.
UV 0 out of 12
Pollen .50 out of 12
Air Quality Not available.
Flu Activity Not available.
METAR KAHQ 011315Z AUTO 00000KT 10SM OVC120 M09/M12 A3032 RMK AO2 T10911120

More Conditions Fewer Conditions

Pressure 30.32 in
Visibility 10.0 miles
Clouds Overcast 12000 ft
Dew Point 10 °F
Humidity 80%
Rainfall 0.00 in
Snow Depth Not available.
UV 0 out of 12
Pollen .50 out of 12
Air Quality Not available.
Flu Activity Not available.
METAR KAHQ 011315Z AUTO 00000KT 10SM OVC120 M09/M12 A3032 RMK AO2 T10911120

More Conditions Fewer Conditions

10-Day Weather Forecast

Almanac

Astronomy

Mar. 01, 2015 Rise Set
Actual Time
Civil Twilight
Nautical Twilight
Astronomical Twilight
Moon
Length of Visible Light
Length of Day
Tomorrow will be .
, % of the Moon is Illuminated

Today's Extremes

State Highs State Lows

Community

WunderPhotos

Upload Photos

1,801,381 photos uploaded!

WunderBlogs® & News

Nearby

Air Quality

  Air Quality AQ Index Pollutant
Not available.

Snow Depth

Station Depth Elevation

Earthquake Activity

City Distance Mag. Time & Date
Minimum magnitude displayed is 2.5.

Coastal Water Temperatures

Place Temperature

Nearby Weather Stations